Time;durP1;ratioP1;P1;durP2;ratioP2;P2;SDS_P1;SDS_P2;PMS_P1;PMS_P2;Temp;Humidity;BMP_temperature;BMP_pressure;BME280_temperature;BME280_humidity;BME280_pressure;Samples;Min_cycle;Max_cycle;Signal;HPM_P1;HPM_P2
2023/09/30 00:01:18;;;;;;;;;;;11.50;99.90;;;;;;4933168;29;20402;-84
2023/09/30 00:03:44;;;;;;;;;;;11.40;99.90;;;;;;4931791;29;19927;-85
2023/09/30 00:06:10;;;;;;;;;;;11.40;99.90;;;;;;4932574;28;19993;-84
2023/09/30 00:08:36;;;;;;;;;;;11.40;99.90;;;;;;4939217;29;19954;-85
2023/09/30 00:11:01;;;;;;;;;;;11.50;99.90;;;;;;4933697;29;19927;-83
2023/09/30 00:13:28;;;;;;;;;;;11.40;99.90;;;;;;4933445;29;19927;-85
2023/09/30 00:15:53;;;;;;;;;;;11.50;99.90;;;;;;4931376;29;20410;-86
2023/09/30 00:18:19;;;;;;;;;;;11.40;99.90;;;;;;4932553;28;19930;-85
2023/09/30 00:20:45;;;;;;;;;;;11.40;99.90;;;;;;4932025;29;20038;-85
2023/09/30 00:23:10;;;;;;;;;;;11.40;99.90;;;;;;4932649;29;19950;-87
2023/09/30 00:25:36;;;;;;;;;;;11.40;99.90;;;;;;4933627;29;19927;-84
2023/09/30 00:28:02;;;;;;;;;;;11.30;99.90;;;;;;4931584;29;19991;-85
2023/09/30 00:30:27;;;;;;;;;;;11.40;99.90;;;;;;4931848;29;19927;-86
2023/09/30 00:32:53;;;;;;;;;;;11.40;99.90;;;;;;4933322;29;19926;-85
2023/09/30 00:35:18;;;;;;;;;;;11.40;99.90;;;;;;4931878;29;19938;-84
2023/09/30 00:37:44;;;;;;;;;;;11.40;99.90;;;;;;4932506;29;19936;-83
2023/09/30 00:40:13;;;;;;;;;;;11.40;99.90;;;;;;4930118;28;19926;-84
2023/09/30 00:42:39;;;;;;;;;;;11.40;99.90;;;;;;4932063;28;19977;-85
2023/09/30 00:45:05;;;;;;;;;;;11.50;99.90;;;;;;4933170;29;19931;-85
2023/09/30 00:47:31;;;;;;;;;;;11.50;99.90;;;;;;4932144;29;20340;-85
2023/09/30 00:49:56;;;;;;;;;;;11.50;99.90;;;;;;4929027;28;19934;-86
2023/09/30 00:52:22;;;;;;;;;;;11.40;99.90;;;;;;4928143;29;19927;-86
2023/09/30 00:54:48;;;;;;;;;;;11.40;99.90;;;;;;4932820;29;19934;-84
2023/09/30 00:57:14;;;;;;;;;;;11.50;99.90;;;;;;4932120;29;20293;-84
2023/09/30 00:59:40;;;;;;;;;;;11.40;99.90;;;;;;4930442;29;19930;-85
2023/09/30 01:02:06;;;;;;;;;;;11.40;99.90;;;;;;4931989;29;19995;-83
2023/09/30 01:04:31;;;;;;;;;;;11.40;99.90;;;;;;4947692;28;19970;-84
2023/09/30 01:06:57;;;;;;;;;;;11.50;99.90;;;;;;4925712;29;20318;-85
2023/09/30 01:09:23;;;;;;;;;;;11.50;99.90;;;;;;4930728;28;19927;-84
2023/09/30 01:11:49;;;;;;;;;;;11.50;99.90;;;;;;4932706;29;19950;-84
2023/09/30 01:14:27;;;;;;;;;;;11.50;99.90;;;;;;4931780;29;19935;-86
2023/09/30 01:16:53;;;;;;;;;;;11.50;99.90;;;;;;4932616;29;19937;-84
2023/09/30 01:19:19;;;;;;;;;;;11.50;99.90;;;;;;4930371;29;19935;-84
2023/09/30 01:21:48;;;;;;;;;;;11.50;99.90;;;;;;4931346;29;19934;-85
2023/09/30 01:24:14;;;;;;;;;;;11.50;99.90;;;;;;4932521;29;20370;-83
2023/09/30 01:26:40;;;;;;;;;;;11.50;99.90;;;;;;4932599;29;20289;-85
2023/09/30 01:29:05;;;;;;;;;;;11.50;99.90;;;;;;4929792;29;19934;-85
2023/09/30 01:31:31;;;;;;;;;;;11.50;99.90;;;;;;4930294;29;19926;-85
2023/09/30 01:33:56;;;;;;;;;;;11.50;99.90;;;;;;4932420;28;19927;-85
2023/09/30 01:36:22;;;;;;;;;;;11.50;99.90;;;;;;4931178;29;19965;-83
2023/09/30 01:38:48;;;;;;;;;;;11.50;99.90;;;;;;4930856;29;19927;-84
2023/09/30 01:41:13;;;;;;;;;;;11.50;99.90;;;;;;4945941;28;19927;-85
2023/09/30 01:43:39;;;;;;;;;;;11.50;99.90;;;;;;4930971;29;19981;-86
2023/09/30 01:46:06;;;;;;;;;;;11.40;99.90;;;;;;4930491;29;19934;-84
2023/09/30 01:48:31;;;;;;;;;;;11.40;99.90;;;;;;4947377;28;19938;-85
2023/09/30 01:50:57;;;;;;;;;;;11.40;99.90;;;;;;4931216;29;19934;-85
2023/09/30 01:53:23;;;;;;;;;;;11.40;99.90;;;;;;4931127;29;19934;-85
2023/09/30 01:55:48;;;;;;;;;;;11.40;99.90;;;;;;4931330;29;19931;-86
2023/09/30 01:58:14;;;;;;;;;;;11.40;99.90;;;;;;4913699;29;19977;-87
2023/09/30 02:00:40;;;;;;;;;;;11.30;99.90;;;;;;4930144;29;19981;-85
2023/09/30 02:03:05;;;;;;;;;;;11.30;99.90;;;;;;4931493;28;19931;-84
2023/09/30 02:05:31;;;;;;;;;;;11.30;99.90;;;;;;4931402;29;19989;-84
2023/09/30 02:07:56;;;;;;;;;;;11.30;99.90;;;;;;4937297;29;20013;-86
2023/09/30 02:10:22;;;;;;;;;;;11.30;99.90;;;;;;4936563;28;20294;-84
2023/09/30 02:12:48;;;;;;;;;;;11.30;99.90;;;;;;4930250;29;19931;-85
2023/09/30 02:15:13;;;;;;;;;;;11.20;99.90;;;;;;4930735;28;19931;-84
2023/09/30 02:17:39;;;;;;;;;;;11.20;99.90;;;;;;4931205;29;20033;-84
2023/09/30 02:20:07;;;;;;;;;;;11.20;99.90;;;;;;4931986;28;20293;-85
2023/09/30 02:22:33;;;;;;;;;;;11.20;99.90;;;;;;4933130;29;19927;-85
2023/09/30 02:24:58;;;;;;;;;;;11.20;99.90;;;;;;4935390;29;19942;-85
2023/09/30 02:27:24;;;;;;;;;;;11.20;99.90;;;;;;4934070;29;19973;-85
2023/09/30 02:29:50;;;;;;;;;;;11.20;99.90;;;;;;4933841;29;19927;-84
2023/09/30 02:32:16;;;;;;;;;;;11.20;99.90;;;;;;4933907;29;20032;-85
2023/09/30 02:34:44;;;;;;;;;;;11.20;99.90;;;;;;4934257;29;19930;-83
2023/09/30 02:37:10;;;;;;;;;;;11.20;99.90;;;;;;4934711;29;20400;-85
2023/09/30 02:39:37;;;;;;;;;;;11.20;99.90;;;;;;4933499;29;19927;-84
2023/09/30 02:42:02;;;;;;;;;;;11.20;99.90;;;;;;4934415;29;19950;-84
2023/09/30 02:44:28;;;;;;;;;;;11.20;99.90;;;;;;4933420;28;20598;-83
2023/09/30 02:46:53;;;;;;;;;;;11.20;99.90;;;;;;4934932;29;19927;-85
2023/09/30 02:49:19;;;;;;;;;;;11.20;99.90;;;;;;4933769;29;20426;-85
2023/09/30 02:51:44;;;;;;;;;;;11.30;99.90;;;;;;4934800;29;19934;-84
2023/09/30 02:54:15;;;;;;;;;;;11.30;99.90;;;;;;4933995;29;20018;-85
2023/09/30 02:56:41;;;;;;;;;;;11.20;99.90;;;;;;4932171;28;20317;-85
2023/09/30 02:59:07;;;;;;;;;;;11.20;99.90;;;;;;4934296;28;19931;-86
2023/09/30 03:01:33;;;;;;;;;;;11.30;99.90;;;;;;4934683;29;19931;-85
2023/09/30 03:03:58;;;;;;;;;;;11.20;99.90;;;;;;4934658;29;20397;-85
2023/09/30 03:06:24;;;;;;;;;;;11.20;99.90;;;;;;4933818;29;19931;-86
2023/09/30 03:08:49;;;;;;;;;;;11.20;99.90;;;;;;4938980;28;19980;-83
2023/09/30 03:11:15;;;;;;;;;;;11.20;99.90;;;;;;4933767;29;19938;-83
2023/09/30 03:13:42;;;;;;;;;;;11.20;99.90;;;;;;4934392;28;20289;-84
2023/09/30 03:16:08;;;;;;;;;;;11.20;99.90;;;;;;4934478;29;19930;-84
2023/09/30 03:18:34;;;;;;;;;;;11.20;99.90;;;;;;4934285;29;19981;-84
2023/09/30 03:21:00;;;;;;;;;;;11.20;99.90;;;;;;4933602;29;19931;-84
2023/09/30 03:23:30;;;;;;;;;;;11.20;99.90;;;;;;4932223;29;19970;-85
2023/09/30 03:25:59;;;;;;;;;;;11.20;99.90;;;;;;4932390;29;19934;-84
2023/09/30 03:28:28;;;;;;;;;;;11.20;99.90;;;;;;4934383;28;19927;-84
2023/09/30 03:30:54;;;;;;;;;;;11.20;99.90;;;;;;4932758;29;19927;-85
2023/09/30 03:33:20;;;;;;;;;;;11.20;99.90;;;;;;4914675;29;19949;-84
2023/09/30 03:35:45;;;;;;;;;;;11.20;99.90;;;;;;4932567;29;19927;-84
2023/09/30 03:38:12;;;;;;;;;;;11.20;99.90;;;;;;4934108;29;19981;-85
2023/09/30 03:40:39;;;;;;;;;;;11.10;99.90;;;;;;4934035;29;19962;-84
2023/09/30 03:43:05;;;;;;;;;;;11.10;99.90;;;;;;4934014;29;19950;-85
2023/09/30 03:45:32;;;;;;;;;;;11.10;99.90;;;;;;4931007;29;20366;-86
2023/09/30 03:47:58;;;;;;;;;;;11.10;99.90;;;;;;4916788;29;20427;-85
2023/09/30 03:50:24;;;;;;;;;;;11.10;99.90;;;;;;4934048;29;20013;-85
2023/09/30 03:52:50;;;;;;;;;;;11.10;99.90;;;;;;4933713;29;19949;-85
2023/09/30 03:55:17;;;;;;;;;;;11.00;99.90;;;;;;4933975;29;20061;-84
2023/09/30 03:57:45;;;;;;;;;;;11.00;99.90;;;;;;4932090;29;19941;-85
2023/09/30 04:00:16;;;;;;;;;;;11.00;99.90;;;;;;4930442;28;19993;-84
2023/09/30 04:02:42;;;;;;;;;;;11.00;99.90;;;;;;4933630;29;19927;-85
2023/09/30 04:05:11;;;;;;;;;;;11.00;99.90;;;;;;4933867;29;19926;-85
2023/09/30 04:07:36;;;;;;;;;;;11.00;99.90;;;;;;4935377;28;19945;-84
2023/09/30 04:10:04;;;;;;;;;;;10.90;99.90;;;;;;4935079;28;20386;-84
2023/09/30 04:12:29;;;;;;;;;;;10.90;99.90;;;;;;4933721;29;19931;-85
2023/09/30 04:14:55;;;;;;;;;;;10.90;99.90;;;;;;4932951;29;19942;-84
2023/09/30 04:17:22;;;;;;;;;;;10.90;99.90;;;;;;4932782;29;19977;-85
2023/09/30 04:19:51;;;;;;;;;;;10.90;99.90;;;;;;4933569;29;19927;-84
2023/09/30 04:22:17;;;;;;;;;;;10.90;99.90;;;;;;4931740;29;19969;-83
2023/09/30 04:24:42;;;;;;;;;;;11.00;99.90;;;;;;4932970;29;20576;-84
2023/09/30 04:27:08;;;;;;;;;;;10.90;99.90;;;;;;4933362;29;19938;-83
2023/09/30 04:29:34;;;;;;;;;;;11.00;99.90;;;;;;4933304;29;19927;-85
2023/09/30 04:32:00;;;;;;;;;;;11.00;99.90;;;;;;4933133;29;20332;-84
2023/09/30 04:34:27;;;;;;;;;;;11.00;99.90;;;;;;4932527;29;20009;-84
2023/09/30 04:36:53;;;;;;;;;;;11.00;99.90;;;;;;4931463;29;19927;-83
2023/09/30 04:39:18;;;;;;;;;;;11.00;99.90;;;;;;4932924;28;19931;-84
2023/09/30 04:41:44;;;;;;;;;;;11.00;99.90;;;;;;4933498;29;19927;-84
2023/09/30 04:44:09;;;;;;;;;;;11.00;99.90;;;;;;4933537;29;19931;-85
2023/09/30 04:46:35;;;;;;;;;;;11.00;99.90;;;;;;4930954;29;19977;-85
2023/09/30 04:49:04;;;;;;;;;;;11.00;99.90;;;;;;4932864;29;19927;-84
2023/09/30 04:51:30;;;;;;;;;;;11.00;99.90;;;;;;4933170;29;19931;-85
2023/09/30 04:53:57;;;;;;;;;;;11.10;99.90;;;;;;4933047;29;19927;-84
2023/09/30 04:56:23;;;;;;;;;;;11.10;99.90;;;;;;4930660;29;19930;-84
2023/09/30 04:58:48;;;;;;;;;;;11.10;99.90;;;;;;4931659;29;19937;-84
2023/09/30 05:01:14;;;;;;;;;;;11.10;99.90;;;;;;4932244;28;19926;-84
2023/09/30 05:03:39;;;;;;;;;;;11.00;99.90;;;;;;4933227;29;20021;-85
2023/09/30 05:06:05;;;;;;;;;;;11.00;99.90;;;;;;4932482;29;19927;-85
2023/09/30 05:08:31;;;;;;;;;;;11.10;99.90;;;;;;4938055;28;19988;-84
2023/09/30 05:10:56;;;;;;;;;;;11.00;99.90;;;;;;4929578;28;20358;-84
2023/09/30 05:13:25;;;;;;;;;;;11.10;99.90;;;;;;4931459;28;20022;-85
2023/09/30 05:15:51;;;;;;;;;;;11.00;99.90;;;;;;4932113;29;19958;-85
2023/09/30 05:18:17;;;;;;;;;;;11.00;99.90;;;;;;4932547;28;20014;-86
2023/09/30 05:20:43;;;;;;;;;;;11.00;99.90;;;;;;4914860;29;20010;-85
2023/09/30 05:23:12;;;;;;;;;;;10.90;99.90;;;;;;4930304;28;19937;-86
2023/09/30 05:25:38;;;;;;;;;;;10.90;99.90;;;;;;4926906;29;19934;-85
2023/09/30 05:28:04;;;;;;;;;;;10.90;99.90;;;;;;4923815;29;19927;-85
2023/09/30 05:30:31;;;;;;;;;;;10.80;99.90;;;;;;4930765;29;20010;-85
2023/09/30 05:32:57;;;;;;;;;;;10.80;99.90;;;;;;4931511;29;20347;-85
2023/09/30 05:35:24;;;;;;;;;;;10.80;99.90;;;;;;4930651;29;19979;-85
2023/09/30 05:37:52;;;;;;;;;;;10.80;99.90;;;;;;4931574;29;19966;-85
2023/09/30 05:40:30;;;;;;;;;;;10.80;99.90;;;;;;4931001;28;19933;-86
2023/09/30 05:42:59;;;;;;;;;;;10.80;99.90;;;;;;4932452;29;19927;-85
2023/09/30 05:45:26;;;;;;;;;;;10.80;99.90;;;;;;4929807;29;19933;-85
2023/09/30 05:47:52;;;;;;;;;;;10.90;99.90;;;;;;4930933;28;20022;-85
2023/09/30 05:50:23;;;;;;;;;;;10.80;99.90;;;;;;4930421;29;20362;-85
2023/09/30 05:52:50;;;;;;;;;;;10.80;99.90;;;;;;4932182;29;19953;-85
2023/09/30 05:55:22;;;;;;;;;;;10.80;99.90;;;;;;4932228;29;19931;-85
2023/09/30 05:57:49;;;;;;;;;;;10.80;99.90;;;;;;4916647;29;19977;-85
2023/09/30 06:00:20;;;;;;;;;;;10.80;99.90;;;;;;4933801;29;20366;-85
2023/09/30 06:02:47;;;;;;;;;;;10.80;99.90;;;;;;4933633;29;19934;-85
2023/09/30 06:05:15;;;;;;;;;;;10.80;99.90;;;;;;4935396;29;19950;-85
2023/09/30 06:07:41;;;;;;;;;;;10.80;99.90;;;;;;4938630;29;19949;-85
2023/09/30 06:10:07;;;;;;;;;;;10.80;99.90;;;;;;4920451;28;20374;-85
2023/09/30 06:12:32;;;;;;;;;;;10.80;99.90;;;;;;4918725;29;19939;-84
2023/09/30 06:14:58;;;;;;;;;;;10.80;99.90;;;;;;4933852;29;19927;-83
2023/09/30 06:17:24;;;;;;;;;;;10.80;99.90;;;;;;4918558;29;19974;-85
2023/09/30 06:19:50;;;;;;;;;;;10.80;99.90;;;;;;4917591;29;20369;-85
2023/09/30 06:22:16;;;;;;;;;;;10.90;99.90;;;;;;4918295;29;19927;-84
2023/09/30 06:24:41;;;;;;;;;;;10.90;99.90;;;;;;4934835;29;20404;-85
2023/09/30 06:27:07;;;;;;;;;;;11.00;99.90;;;;;;4917205;29;20397;-85
2023/09/30 06:29:33;;;;;;;;;;;11.10;99.90;;;;;;4934878;29;19931;-85
2023/09/30 06:31:59;;;;;;;;;;;11.20;99.90;;;;;;4932491;29;20865;-83
2023/09/30 06:34:25;;;;;;;;;;;11.30;99.90;;;;;;4935127;29;20018;-85
2023/09/30 06:36:53;;;;;;;;;;;11.40;99.90;;;;;;4933832;29;19934;-85
2023/09/30 06:39:19;;;;;;;;;;;11.50;99.90;;;;;;4934002;29;19927;-84
2023/09/30 06:41:46;;;;;;;;;;;11.50;99.90;;;;;;4934173;29;19950;-85
2023/09/30 06:44:12;;;;;;;;;;;11.60;99.90;;;;;;4934829;29;19939;-84
2023/09/30 06:46:39;;;;;;;;;;;11.60;99.90;;;;;;4935005;29;19933;-84
2023/09/30 06:49:04;;;;;;;;;;;11.60;99.90;;;;;;4934650;29;19931;-85
2023/09/30 06:51:30;;;;;;;;;;;11.70;99.90;;;;;;4933659;28;19931;-85
2023/09/30 06:53:56;;;;;;;;;;;11.80;99.90;;;;;;4935011;29;19938;-85
2023/09/30 06:56:21;;;;;;;;;;;11.90;99.90;;;;;;4933661;29;19926;-85
2023/09/30 06:58:48;;;;;;;;;;;12.00;99.90;;;;;;4933986;29;19927;-85
2023/09/30 07:01:17;;;;;;;;;;;12.20;99.90;;;;;;4933419;28;19927;-85
2023/09/30 07:03:43;;;;;;;;;;;12.30;99.90;;;;;;4934087;29;19927;-85
2023/09/30 07:06:08;;;;;;;;;;;12.30;99.90;;;;;;4933545;28;20302;-85
2023/09/30 07:08:34;;;;;;;;;;;12.40;99.90;;;;;;4926761;29;20025;-87
2023/09/30 07:11:00;;;;;;;;;;;12.50;99.90;;;;;;4933285;28;19927;-85
2023/09/30 07:13:25;;;;;;;;;;;12.60;99.90;;;;;;4933530;29;19926;-85
2023/09/30 07:15:51;;;;;;;;;;;12.70;99.90;;;;;;4932634;28;19934;-84
2023/09/30 07:18:17;;;;;;;;;;;12.90;99.90;;;;;;4933414;28;20396;-84
2023/09/30 07:20:42;;;;;;;;;;;13.10;99.90;;;;;;4932712;29;20286;-85
2023/09/30 07:23:09;;;;;;;;;;;13.20;99.90;;;;;;4931697;29;19934;-84
2023/09/30 07:25:34;;;;;;;;;;;13.60;99.90;;;;;;4925171;29;20390;-85
2023/09/30 07:28:00;;;;;;;;;;;14.00;99.90;;;;;;4948538;28;19934;-85
2023/09/30 07:30:26;;;;;;;;;;;14.10;99.90;;;;;;4933438;29;19927;-87
2023/09/30 07:32:52;;;;;;;;;;;14.10;99.90;;;;;;4933970;29;20566;-86
2023/09/30 07:35:17;;;;;;;;;;;14.00;99.90;;;;;;4933480;29;19934;-86
2023/09/30 07:37:43;;;;;;;;;;;13.80;99.90;;;;;;4932952;29;20034;-83
2023/09/30 07:40:10;;;;;;;;;;;13.70;99.90;;;;;;4933548;29;19931;-86
2023/09/30 07:42:36;;;;;;;;;;;13.60;99.90;;;;;;4932363;28;19927;-85
2023/09/30 07:45:03;;;;;;;;;;;13.60;99.90;;;;;;4930292;29;19926;-86
2023/09/30 07:47:30;;;;;;;;;;;13.70;99.90;;;;;;4932237;29;20416;-87
2023/09/30 07:49:56;;;;;;;;;;;13.70;99.90;;;;;;4925996;28;19935;-86
2023/09/30 07:52:21;;;;;;;;;;;13.70;99.90;;;;;;4933300;29;19927;-85
2023/09/30 07:54:47;;;;;;;;;;;13.80;99.90;;;;;;4932920;29;19931;-85
2023/09/30 07:57:13;;;;;;;;;;;13.90;99.90;;;;;;4933590;29;19934;-85
2023/09/30 07:59:38;;;;;;;;;;;14.00;99.90;;;;;;4931726;29;19986;-85
2023/09/30 08:02:04;;;;;;;;;;;14.00;99.90;;;;;;4921371;28;19927;-84
2023/09/30 08:04:30;;;;;;;;;;;14.10;99.90;;;;;;4933578;29;19942;-85
2023/09/30 08:06:56;;;;;;;;;;;14.20;99.90;;;;;;4933154;29;19973;-90
2023/09/30 08:09:23;;;;;;;;;;;14.30;99.90;;;;;;4949760;28;19938;-85
2023/09/30 08:11:50;;;;;;;;;;;14.40;99.90;;;;;;4932087;29;19935;-84
2023/09/30 08:14:16;;;;;;;;;;;14.50;99.90;;;;;;4932527;28;19927;-85
2023/09/30 08:16:42;;;;;;;;;;;14.60;99.90;;;;;;4932133;29;20591;-86
2023/09/30 08:19:08;;;;;;;;;;;14.70;99.90;;;;;;4927937;29;19949;-84
2023/09/30 08:21:34;;;;;;;;;;;14.70;99.90;;;;;;4932526;29;20389;-84
2023/09/30 08:24:00;;;;;;;;;;;14.80;99.90;;;;;;4932375;28;19974;-86
2023/09/30 08:26:26;;;;;;;;;;;14.80;99.90;;;;;;4924691;28;20293;-85
2023/09/30 08:28:51;;;;;;;;;;;14.90;99.90;;;;;;4924969;29;19949;-84
2023/09/30 08:31:17;;;;;;;;;;;15.00;99.90;;;;;;4926934;28;19935;-86
2023/09/30 08:33:45;;;;;;;;;;;15.10;99.90;;;;;;4925572;29;20404;-84
2023/09/30 08:36:11;;;;;;;;;;;15.20;99.90;;;;;;4926684;29;20293;-85
2023/09/30 08:38:38;;;;;;;;;;;15.30;99.90;;;;;;4931515;29;19933;-83
2023/09/30 08:41:04;;;;;;;;;;;15.30;99.90;;;;;;4932214;29;20271;-86
2023/09/30 08:43:33;;;;;;;;;;;15.20;99.90;;;;;;4932328;29;19931;-86
2023/09/30 08:46:01;;;;;;;;;;;15.20;99.90;;;;;;4929402;29;20395;-86
2023/09/30 08:48:28;;;;;;;;;;;15.20;99.90;;;;;;4932124;29;20026;-86
2023/09/30 08:50:57;;;;;;;;;;;15.20;99.90;;;;;;4926195;29;20059;-85
2023/09/30 08:53:24;;;;;;;;;;;15.20;99.90;;;;;;4925600;29;19927;-84
2023/09/30 08:55:52;;;;;;;;;;;15.30;99.90;;;;;;4926349;29;19941;-85
2023/09/30 08:58:19;;;;;;;;;;;15.30;99.90;;;;;;4926222;29;19927;-85
2023/09/30 09:00:45;;;;;;;;;;;15.40;99.90;;;;;;4928146;28;19934;-85
2023/09/30 09:03:10;;;;;;;;;;;15.50;99.90;;;;;;4910977;29;20566;-86
2023/09/30 09:05:36;;;;;;;;;;;15.50;99.90;;;;;;4925652;29;19974;-85
2023/09/30 09:08:02;;;;;;;;;;;15.60;99.90;;;;;;4924821;29;19972;-86
2023/09/30 09:10:28;;;;;;;;;;;15.70;99.90;;;;;;4925935;28;19927;-86
2023/09/30 09:12:57;;;;;;;;;;;15.80;99.90;;;;;;4926103;29;19938;-86
2023/09/30 09:15:23;;;;;;;;;;;16.00;99.90;;;;;;4924845;28;19966;-85
2023/09/30 09:17:50;;;;;;;;;;;16.10;99.90;;;;;;4926171;29;19935;-83
2023/09/30 09:20:19;;;;;;;;;;;16.20;99.90;;;;;;4925893;29;20352;-85
2023/09/30 09:22:45;;;;;;;;;;;16.40;99.90;;;;;;4926148;29;20266;-85
2023/09/30 09:25:11;;;;;;;;;;;16.50;99.90;;;;;;4927266;28;19973;-84
2023/09/30 09:27:38;;;;;;;;;;;16.70;99.90;;;;;;4925892;29;19942;-85
2023/09/30 09:30:15;;;;;;;;;;;17.30;99.90;;;;;;4925040;29;19942;-85
2023/09/30 09:33:00;;;;;;;;;;;17.90;99.90;;;;;;4926270;29;19927;-87
2023/09/30 09:35:28;;;;;;;;;;;18.60;99.90;;;;;;4926642;28;19931;-85
2023/09/30 09:37:55;;;;;;;;;;;19.30;99.90;;;;;;4926919;28;19937;-85
2023/09/30 09:40:24;;;;;;;;;;;19.80;99.90;;;;;;4926775;28;19930;-87
2023/09/30 09:42:53;;;;;;;;;;;20.10;99.90;;;;;;4925867;29;19930;-87
2023/09/30 09:45:20;;;;;;;;;;;20.40;99.90;;;;;;4926311;29;19957;-87
2023/09/30 09:47:46;;;;;;;;;;;20.60;99.90;;;;;;4929251;29;19927;-86
2023/09/30 09:50:13;;;;;;;;;;;20.80;99.90;;;;;;4931829;29;20348;-87
2023/09/30 09:52:39;;;;;;;;;;;21.00;99.90;;;;;;4928167;28;19974;-86
2023/09/30 09:55:06;;;;;;;;;;;21.20;99.90;;;;;;4929637;29;19931;-90
2023/09/30 09:57:33;;;;;;;;;;;21.30;99.90;;;;;;4914781;28;19926;-87
2023/09/30 09:59:59;;;;;;;;;;;21.40;99.90;;;;;;4930883;29;19942;-86
2023/09/30 10:02:25;;;;;;;;;;;21.40;99.90;;;;;;4918126;28;19927;-87
2023/09/30 10:04:51;;;;;;;;;;;21.30;99.90;;;;;;4929382;28;19931;-84
2023/09/30 10:07:20;;;;;;;;;;;21.00;99.90;;;;;;4931104;29;19935;-86
2023/09/30 10:09:47;;;;;;;;;;;20.90;99.90;;;;;;4931058;29;19927;-89
2023/09/30 10:12:14;;;;;;;;;;;20.60;99.90;;;;;;4932030;29;19976;-84
2023/09/30 10:14:39;;;;;;;;;;;20.40;99.90;;;;;;4929358;28;20373;-84
2023/09/30 10:17:05;;;;;;;;;;;20.30;99.90;;;;;;4928950;29;19984;-85
2023/09/30 10:19:32;;;;;;;;;;;20.20;99.90;;;;;;4938160;28;20309;-85
2023/09/30 10:22:16;;;;;;;;;;;20.20;99.90;;;;;;4942557;28;19935;-86
2023/09/30 10:24:41;;;;;;;;;;;20.10;99.90;;;;;;4924903;28;20437;-85
2023/09/30 10:27:28;;;;;;;;;;;20.10;99.90;;;;;;4924522;29;20041;-87
2023/09/30 10:29:59;;;;;;;;;;;20.10;99.90;;;;;;4928159;29;20390;-86
2023/09/30 10:32:44;;;;;;;;;;;20.10;99.90;;;;;;4930579;29;19980;-85
2023/09/30 10:35:09;;;;;;;;;;;20.00;99.90;;;;;;4930761;29;19961;-85
2023/09/30 10:37:35;;;;;;;;;;;20.10;99.90;;;;;;4930305;29;19973;-83
2023/09/30 10:40:04;;;;;;;;;;;20.10;99.90;;;;;;4927170;29;20136;-85
2023/09/30 10:42:52;;;;;;;;;;;20.30;99.90;;;;;;4932447;29;20026;-86
2023/09/30 10:45:38;;;;;;;;;;;20.40;99.90;;;;;;4931007;29;19931;-85
2023/09/30 10:48:23;;;;;;;;;;;20.40;99.90;;;;;;4931842;29;20579;-86
2023/09/30 10:50:50;;;;;;;;;;;20.50;99.90;;;;;;4932787;28;19934;-84
2023/09/30 10:53:16;;;;;;;;;;;20.50;99.90;;;;;;4932781;29;19965;-84
2023/09/30 10:55:42;;;;;;;;;;;20.60;99.90;;;;;;4930966;29;19974;-82
2023/09/30 10:58:08;;;;;;;;;;;20.50;99.90;;;;;;4933979;29;19926;-84
2023/09/30 11:00:33;;;;;;;;;;;20.40;99.90;;;;;;4934327;29;19980;-83
2023/09/30 11:02:59;;;;;;;;;;;20.30;99.90;;;;;;4934563;29;20400;-85
2023/09/30 11:05:24;;;;;;;;;;;20.30;99.90;;;;;;4916253;28;19973;-84
2023/09/30 11:07:52;;;;;;;;;;;20.30;99.90;;;;;;4934763;29;19934;-82
2023/09/30 11:10:18;;;;;;;;;;;20.30;99.90;;;;;;4931865;29;19970;-84
2023/09/30 11:13:02;;;;;;;;;;;20.20;99.90;;;;;;4931088;29;19927;-83
2023/09/30 11:15:27;;;;;;;;;;;20.30;99.90;;;;;;4926304;28;19948;-84
2023/09/30 11:17:53;;;;;;;;;;;20.30;99.90;;;;;;4933454;29;19933;-84
2023/09/30 11:20:19;;;;;;;;;;;20.30;99.90;;;;;;4932409;29;20605;-85
2023/09/30 11:22:45;;;;;;;;;;;20.30;99.90;;;;;;4934548;28;19934;-85
2023/09/30 11:25:17;;;;;;;;;;;20.20;99.90;;;;;;4931506;29;19942;-84
2023/09/30 11:27:43;;;;;;;;;;;20.20;99.90;;;;;;4935718;28;19927;-85
2023/09/30 11:30:09;;;;;;;;;;;20.20;99.90;;;;;;4931658;29;19937;-85
2023/09/30 11:32:35;;;;;;;;;;;20.30;99.90;;;;;;4934286;28;19926;-84
2023/09/30 11:35:00;;;;;;;;;;;20.40;99.90;;;;;;4933872;29;19937;-84
2023/09/30 11:37:33;;;;;;;;;;;20.40;99.90;;;;;;4932914;29;19953;-84
2023/09/30 11:40:14;;;;;;;;;;;20.40;99.90;;;;;;4931936;29;19944;-84
2023/09/30 11:42:39;;;;;;;;;;;20.50;99.90;;;;;;4930809;28;19930;-84
2023/09/30 11:45:22;;;;;;;;;;;20.60;99.90;;;;;;4934038;28;19945;-84
2023/09/30 11:47:48;;;;;;;;;;;20.70;99.90;;;;;;4932687;29;19931;-87
2023/09/30 11:50:14;;;;;;;;;;;20.80;99.90;;;;;;4929498;28;19927;-84
2023/09/30 11:52:44;;;;;;;;;;;20.90;99.90;;;;;;4933245;29;20404;-84
2023/09/30 11:55:12;;;;;;;;;;;21.20;99.90;;;;;;4932663;29;20021;-84
2023/09/30 11:57:38;;;;;;;;;;;21.30;99.90;;;;;;4931733;28;20370;-87
2023/09/30 12:00:12;;;;;;;;;;;21.40;99.90;;;;;;4930235;28;19942;-87
2023/09/30 12:02:40;;;;;;;;;;;21.50;99.90;;;;;;4930897;29;19981;-86
2023/09/30 12:05:11;;;;;;;;;;;21.60;99.90;;;;;;4931781;29;19927;-88
2023/09/30 12:07:37;;;;;;;;;;;21.70;99.90;;;;;;4932913;29;20009;-85
2023/09/30 12:10:03;;;;;;;;;;;21.90;99.90;;;;;;4933246;29;19927;-85
2023/09/30 12:12:28;;;;;;;;;;;21.90;99.90;;;;;;4932125;29;19926;-86
2023/09/30 12:14:55;;;;;;;;;;;22.00;99.90;;;;;;4933547;28;19927;-86
2023/09/30 12:17:22;;;;;;;;;;;22.10;99.90;;;;;;4933651;29;19931;-85
2023/09/30 12:19:48;;;;;;;;;;;22.10;99.90;;;;;;4933608;29;19927;-86
2023/09/30 12:22:13;;;;;;;;;;;22.20;99.90;;;;;;4932654;29;19949;-86
2023/09/30 12:24:39;;;;;;;;;;;22.20;99.90;;;;;;4933788;29;20009;-86
2023/09/30 12:27:05;;;;;;;;;;;22.20;99.90;;;;;;4932552;28;20034;-85
2023/09/30 12:29:32;;;;;;;;;;;22.20;99.90;;;;;;4933432;29;19934;-85
2023/09/30 12:31:57;;;;;;;;;;;22.20;99.90;;;;;;4931926;28;20377;-83
2023/09/30 12:34:25;;;;;;;;;;;22.10;99.90;;;;;;4932335;29;19927;-85
2023/09/30 12:36:51;;;;;;;;;;;21.90;99.90;;;;;;4933300;29;19969;-86
2023/09/30 12:39:21;;;;;;;;;;;21.80;99.90;;;;;;4931684;29;20024;-85
2023/09/30 12:41:46;;;;;;;;;;;21.60;99.90;;;;;;4932421;29;19927;-85
2023/09/30 12:44:12;;;;;;;;;;;21.40;99.90;;;;;;4930915;29;19934;-83
2023/09/30 12:46:39;;;;;;;;;;;21.20;99.90;;;;;;4932272;29;19931;-84
2023/09/30 12:49:05;;;;;;;;;;;21.00;99.90;;;;;;4933136;29;19938;-85
2023/09/30 12:51:31;;;;;;;;;;;20.90;99.90;;;;;;4932096;29;19927;-84
2023/09/30 12:53:57;;;;;;;;;;;20.70;99.90;;;;;;4931462;29;20014;-85
2023/09/30 12:56:23;;;;;;;;;;;20.70;99.90;;;;;;4932801;28;19931;-85
2023/09/30 12:58:49;;;;;;;;;;;20.70;99.90;;;;;;4933078;29;19931;-83
2023/09/30 13:01:16;;;;;;;;;;;20.70;99.90;;;;;;4931556;28;19938;-84
2023/09/30 13:03:41;;;;;;;;;;;20.80;99.90;;;;;;4931738;29;20388;-85
2023/09/30 13:06:07;;;;;;;;;;;20.70;99.90;;;;;;4930575;29;19938;-85
2023/09/30 13:08:33;;;;;;;;;;;20.60;99.90;;;;;;4931957;29;19950;-85
2023/09/30 13:11:02;;;;;;;;;;;20.50;99.90;;;;;;4932744;29;20070;-84
2023/09/30 13:13:30;;;;;;;;;;;20.50;99.90;;;;;;4932844;28;20297;-84
2023/09/30 13:15:57;;;;;;;;;;;20.40;99.90;;;;;;4932885;29;19981;-84
2023/09/30 13:18:23;;;;;;;;;;;20.30;99.90;;;;;;4931618;29;19931;-85
2023/09/30 13:20:48;;;;;;;;;;;20.30;99.90;;;;;;4932500;29;20340;-84
2023/09/30 13:23:14;;;;;;;;;;;20.30;99.90;;;;;;4931754;28;19927;-87
2023/09/30 13:25:39;;;;;;;;;;;20.40;99.90;;;;;;4932601;29;20378;-84
2023/09/30 13:28:05;;;;;;;;;;;20.40;99.90;;;;;;4931857;29;19934;-86
2023/09/30 13:30:31;;;;;;;;;;;20.40;99.90;;;;;;4931958;29;19927;-85
2023/09/30 13:32:57;;;;;;;;;;;20.40;99.90;;;;;;4932558;29;20336;-86
2023/09/30 13:35:23;;;;;;;;;;;20.40;99.90;;;;;;4932362;29;19980;-84
2023/09/30 13:37:48;;;;;;;;;;;20.40;99.90;;;;;;4932655;29;19927;-86
2023/09/30 13:40:14;;;;;;;;;;;20.30;99.90;;;;;;4931687;29;19972;-86
2023/09/30 13:42:40;;;;;;;;;;;20.50;99.90;;;;;;4932289;29;19931;-87
2023/09/30 13:45:06;;;;;;;;;;;20.60;99.90;;;;;;4932414;29;20013;-85
2023/09/30 13:47:32;;;;;;;;;;;20.70;99.90;;;;;;4931163;29;19933;-85
2023/09/30 13:49:58;;;;;;;;;;;20.70;99.90;;;;;;4931411;29;19984;-87
2023/09/30 13:52:23;;;;;;;;;;;20.70;99.90;;;;;;4932257;29;20021;-85
2023/09/30 13:54:49;;;;;;;;;;;20.60;99.90;;;;;;4932357;29;19931;-85
2023/09/30 13:57:15;;;;;;;;;;;20.60;99.90;;;;;;4931334;28;19934;-85
2023/09/30 13:59:41;;;;;;;;;;;20.50;99.90;;;;;;4931000;29;19934;-85
2023/09/30 14:02:07;;;;;;;;;;;20.40;99.90;;;;;;4931664;28;19934;-85
2023/09/30 14:04:35;;;;;;;;;;;20.40;99.90;;;;;;4931892;29;19927;-86
2023/09/30 14:07:02;;;;;;;;;;;20.40;99.90;;;;;;4932059;29;19927;-85
2023/09/30 14:09:28;;;;;;;;;;;20.20;99.90;;;;;;4932276;29;19942;-85
2023/09/30 14:11:53;;;;;;;;;;;20.10;99.90;;;;;;4930984;29;19938;-86
2023/09/30 14:14:19;;;;;;;;;;;19.80;99.90;;;;;;4930784;29;20309;-85